sensor_id;sensor_type;location;lat;lon;timestamp;pressure;altitude;pressure_sealevel;temperature;humidity
56334;BME280;42240;53.626;55.886;2023-03-01T00:00:49;76635.91;;;-145.10;100.00
56334;BME280;42240;53.626;55.886;2023-03-01T00:02:22;76647.75;;;-145.10;100.00
56334;BME280;42240;53.626;55.886;2023-03-01T00:03:57;76626.00;;;-145.10;100.00
56334;BME280;42240;53.626;55.886;2023-03-01T00:05:30;76616.13;;;-145.10;100.00
56334;BME280;42240;53.626;55.886;2023-03-01T00:07:04;76618.09;;;-145.10;100.00
56334;BME280;42240;53.626;55.886;2023-03-01T00:08:37;76604.25;;;-145.10;100.00
56334;BME280;42240;53.626;55.886;2023-03-01T00:10:11;76608.22;;;-145.10;100.00
56334;BME280;42240;53.626;55.886;2023-03-01T00:11:44;76600.31;;;-145.10;100.00
56334;BME280;42240;53.626;55.886;2023-03-01T00:13:17;76596.34;;;-145.10;100.00
56334;BME280;42240;53.626;55.886;2023-03-01T00:14:50;76596.34;;;-145.10;100.00
56334;BME280;42240;53.626;55.886;2023-03-01T00:16:28;76588.44;;;-145.10;100.00
56334;BME280;42240;53.626;55.886;2023-03-01T00:18:03;76584.47;;;-145.10;100.00
56334;BME280;42240;53.626;55.886;2023-03-01T00:19:35;76582.50;;;-145.10;100.00
56334;BME280;42240;53.626;55.886;2023-03-01T00:21:09;76590.41;;;-145.10;100.00
56334;BME280;42240;53.626;55.886;2023-03-01T00:22:42;76588.44;;;-145.10;100.00
56334;BME280;42240;53.626;55.886;2023-03-01T00:24:16;76590.41;;;-145.10;100.00
56334;BME280;42240;53.626;55.886;2023-03-01T00:25:49;76584.47;;;-145.10;100.00
56334;BME280;42240;53.626;55.886;2023-03-01T00:27:22;76580.53;;;-145.10;100.00
56334;BME280;42240;53.626;55.886;2023-03-01T00:28:57;76560.75;;;-145.10;100.00
56334;BME280;42240;53.626;55.886;2023-03-01T00:30:30;76566.69;;;-145.10;100.00
56334;BME280;42240;53.626;55.886;2023-03-01T00:32:03;76562.72;;;-145.10;100.00
56334;BME280;42240;53.626;55.886;2023-03-01T00:33:37;76556.81;;;-145.10;100.00
56334;BME280;42240;53.626;55.886;2023-03-01T00:35:10;76558.78;;;-145.10;100.00
56334;BME280;42240;53.626;55.886;2023-03-01T00:36:43;76562.72;;;-145.10;100.00
56334;BME280;42240;53.626;55.886;2023-03-01T00:38:16;76562.72;;;-145.10;100.00
56334;BME280;42240;53.626;55.886;2023-03-01T00:39:49;76560.75;;;-145.10;100.00
56334;BME280;42240;53.626;55.886;2023-03-01T00:41:23;76558.78;;;-145.10;100.00
56334;BME280;42240;53.626;55.886;2023-03-01T00:42:56;76544.94;;;-145.10;100.00
56334;BME280;42240;53.626;55.886;2023-03-01T00:44:29;76537.03;;;-145.10;100.00
56334;BME280;42240;53.626;55.886;2023-03-01T00:46:07;76537.03;;;-145.10;100.00
56334;BME280;42240;53.626;55.886;2023-03-01T00:47:41;76525.16;;;-145.10;100.00
56334;BME280;42240;53.626;55.886;2023-03-01T00:49:14;76533.06;;;-145.10;100.00
56334;BME280;42240;53.626;55.886;2023-03-01T00:50:47;76529.13;;;-145.10;100.00
56334;BME280;42240;53.626;55.886;2023-03-01T00:52:20;76531.09;;;-145.10;100.00
56334;BME280;42240;53.626;55.886;2023-03-01T00:53:55;76517.25;;;-145.10;100.00
56334;BME280;42240;53.626;55.886;2023-03-01T00:55:29;76523.19;;;-145.10;100.00
56334;BME280;42240;53.626;55.886;2023-03-01T00:57:02;76517.25;;;-145.10;100.00
56334;BME280;42240;53.626;55.886;2023-03-01T00:58:36;76507.38;;;-145.10;100.00
56334;BME280;42240;53.626;55.886;2023-03-01T01:00:10;76513.28;;;-145.10;100.00
56334;BME280;42240;53.626;55.886;2023-03-01T01:01:44;76515.28;;;-145.10;100.00
56334;BME280;42240;53.626;55.886;2023-03-01T01:03:17;76503.41;;;-145.10;100.00
56334;BME280;42240;53.626;55.886;2023-03-01T01:04:50;76509.34;;;-145.10;100.00
56334;BME280;42240;53.626;55.886;2023-03-01T01:06:45;76505.38;;;-145.10;100.00
56334;BME280;42240;53.626;55.886;2023-03-01T01:08:20;76513.28;;;-145.10;100.00
56334;BME280;42240;53.626;55.886;2023-03-01T01:09:53;76505.38;;;-145.10;100.00
56334;BME280;42240;53.626;55.886;2023-03-01T01:11:26;76491.53;;;-145.10;100.00
56334;BME280;42240;53.626;55.886;2023-03-01T01:13:00;76513.28;;;-145.10;100.00
56334;BME280;42240;53.626;55.886;2023-03-01T01:14:34;76507.38;;;-145.10;100.00
56334;BME280;42240;53.626;55.886;2023-03-01T01:16:07;76509.34;;;-145.10;100.00
56334;BME280;42240;53.626;55.886;2023-03-01T01:17:40;76592.41;;;-145.10;100.00
56334;BME280;42240;53.626;55.886;2023-03-01T01:19:14;76501.44;;;-145.10;100.00
56334;BME280;42240;53.626;55.886;2023-03-01T01:20:47;76497.47;;;-145.10;100.00
56334;BME280;42240;53.626;55.886;2023-03-01T01:22:20;76493.53;;;-145.10;100.00
56334;BME280;42240;53.626;55.886;2023-03-01T01:23:57;76568.66;;;-145.10;100.00
56334;BME280;42240;53.626;55.886;2023-03-01T01:25:34;76503.41;;;-145.10;100.00
56334;BME280;42240;53.626;55.886;2023-03-01T01:27:08;76515.28;;;-145.10;100.00
56334;BME280;42240;53.626;55.886;2023-03-01T01:28:41;76523.19;;;-145.10;100.00
56334;BME280;42240;53.626;55.886;2023-03-01T01:30:14;76525.16;;;-145.10;100.00
56334;BME280;42240;53.626;55.886;2023-03-01T01:31:47;76576.56;;;-145.10;100.00
56334;BME280;42240;53.626;55.886;2023-03-01T01:33:21;76517.25;;;-145.10;100.00
56334;BME280;42240;53.626;55.886;2023-03-01T01:34:53;76529.13;;;-145.10;100.00
56334;BME280;42240;53.626;55.886;2023-03-01T01:36:27;76517.25;;;-145.10;100.00
56334;BME280;42240;53.626;55.886;2023-03-01T01:38:00;76523.19;;;-145.10;100.00
56334;BME280;42240;53.626;55.886;2023-03-01T01:39:34;76505.38;;;-145.10;100.00
56334;BME280;42240;53.626;55.886;2023-03-01T01:41:08;76513.28;;;-145.10;100.00
56334;BME280;42240;53.626;55.886;2023-03-01T01:42:43;76515.28;;;-145.10;100.00
56334;BME280;42240;53.626;55.886;2023-03-01T01:44:20;76499.47;;;-145.10;100.00
56334;BME280;42240;53.626;55.886;2023-03-01T01:46:02;76495.50;;;-145.10;100.00
56334;BME280;42240;53.626;55.886;2023-03-01T01:47:36;76515.28;;;-145.10;100.00
56334;BME280;42240;53.626;55.886;2023-03-01T01:49:38;76481.66;;;-145.10;100.00
56334;BME280;42240;53.626;55.886;2023-03-01T01:51:18;76503.41;;;-145.10;100.00
56334;BME280;42240;53.626;55.886;2023-03-01T01:52:53;76511.31;;;-145.10;100.00
56334;BME280;42240;53.626;55.886;2023-03-01T01:54:36;76521.22;;;-145.10;100.00
56334;BME280;42240;53.626;55.886;2023-03-01T01:56:12;76519.22;;;-145.10;100.00
56334;BME280;42240;53.626;55.886;2023-03-01T01:57:51;76521.22;;;-145.10;100.00
56334;BME280;42240;53.626;55.886;2023-03-01T01:59:28;76517.25;;;-145.10;100.00
56334;BME280;42240;53.626;55.886;2023-03-01T02:01:04;76517.25;;;-145.10;100.00
56334;BME280;42240;53.626;55.886;2023-03-01T02:02:38;76523.19;;;-145.10;100.00
56334;BME280;42240;53.626;55.886;2023-03-01T02:04:12;76535.06;;;-145.10;100.00
56334;BME280;42240;53.626;55.886;2023-03-01T02:07:41;76628.00;;;-145.10;100.00
56334;BME280;42240;53.626;55.886;2023-03-01T02:09:15;76513.28;;;-145.10;100.00
56334;BME280;42240;53.626;55.886;2023-03-01T02:10:50;76517.25;;;-145.10;100.00
56334;BME280;42240;53.626;55.886;2023-03-01T02:12:25;76527.13;;;-145.10;100.00
56334;BME280;42240;53.626;55.886;2023-03-01T02:14:00;76533.06;;;-145.10;100.00
56334;BME280;42240;53.626;55.886;2023-03-01T02:15:36;76529.13;;;-145.10;100.00
56334;BME280;42240;53.626;55.886;2023-03-01T02:17:11;76515.28;;;-145.10;100.00
56334;BME280;42240;53.626;55.886;2023-03-01T02:18:46;76515.28;;;-145.10;100.00
56334;BME280;42240;53.626;55.886;2023-03-01T02:22:30;76505.38;;;-145.10;100.00
56334;BME280;42240;53.626;55.886;2023-03-01T02:26:11;76501.44;;;-145.10;100.00
56334;BME280;42240;53.626;55.886;2023-03-01T02:29:25;76511.31;;;-145.10;100.00
56334;BME280;42240;53.626;55.886;2023-03-01T02:30:59;76515.28;;;-145.10;100.00
56334;BME280;42240;53.626;55.886;2023-03-01T02:32:51;76505.38;;;-145.10;100.00
56334;BME280;42240;53.626;55.886;2023-03-01T02:34:25;76588.44;;;-145.10;100.00
56334;BME280;42240;53.626;55.886;2023-03-01T02:36:00;76505.38;;;-145.10;100.00
56334;BME280;42240;53.626;55.886;2023-03-01T02:37:36;76503.41;;;-145.10;100.00
56334;BME280;42240;53.626;55.886;2023-03-01T02:39:14;76489.56;;;-145.10;100.00
56334;BME280;42240;53.626;55.886;2023-03-01T02:40:52;76505.38;;;-145.10;100.00
56334;BME280;42240;53.626;55.886;2023-03-01T02:42:33;76503.41;;;-145.10;100.00
56334;BME280;42240;53.626;55.886;2023-03-01T02:44:09;76501.44;;;-145.10;100.00
56334;BME280;42240;53.626;55.886;2023-03-01T02:45:50;76475.72;;;-145.10;100.00
56334;BME280;42240;53.626;55.886;2023-03-01T02:47:23;76489.56;;;-145.10;100.00
56334;BME280;42240;53.626;55.886;2023-03-01T02:48:58;76495.50;;;-145.10;100.00
56334;BME280;42240;53.626;55.886;2023-03-01T02:51:05;76477.72;;;-145.10;100.00
56334;BME280;42240;53.626;55.886;2023-03-01T02:53:02;76501.44;;;-145.10;100.00
56334;BME280;42240;53.626;55.886;2023-03-01T02:54:46;76513.28;;;-145.10;100.00
56334;BME280;42240;53.626;55.886;2023-03-01T02:56:20;76513.28;;;-145.10;100.00
56334;BME280;42240;53.626;55.886;2023-03-01T02:57:55;76505.38;;;-145.10;100.00
56334;BME280;42240;53.626;55.886;2023-03-01T02:59:31;76493.53;;;-145.10;100.00
56334;BME280;42240;53.626;55.886;2023-03-01T03:01:06;76499.47;;;-145.10;100.00
56334;BME280;42240;53.626;55.886;2023-03-01T03:02:41;76505.38;;;-145.10;100.00
56334;BME280;42240;53.626;55.886;2023-03-01T03:04:22;76501.44;;;-145.10;100.00
56334;BME280;42240;53.626;55.886;2023-03-01T03:05:55;76507.38;;;-145.10;100.00
56334;BME280;42240;53.626;55.886;2023-03-01T03:07:28;76501.44;;;-145.10;100.00
56334;BME280;42240;53.626;55.886;2023-03-01T03:09:03;76485.63;;;-145.10;100.00
56334;BME280;42240;53.626;55.886;2023-03-01T03:10:40;76493.53;;;-145.10;100.00
56334;BME280;42240;53.626;55.886;2023-03-01T03:12:13;76501.44;;;-145.10;100.00
56334;BME280;42240;53.626;55.886;2023-03-01T03:13:46;76497.47;;;-145.10;100.00
56334;BME280;42240;53.626;55.886;2023-03-01T03:15:22;76489.56;;;-145.10;100.00
56334;BME280;42240;53.626;55.886;2023-03-01T03:16:56;76485.63;;;-145.10;100.00
56334;BME280;42240;53.626;55.886;2023-03-01T03:18:29;76491.53;;;-145.10;100.00
56334;BME280;42240;53.626;55.886;2023-03-01T03:20:04;76479.69;;;-145.10;100.00
56334;BME280;42240;53.626;55.886;2023-03-01T03:21:37;76493.53;;;-145.10;100.00
56334;BME280;42240;53.626;55.886;2023-03-01T03:23:11;76608.22;;;-145.10;100.00
56334;BME280;42240;53.626;55.886;2023-03-01T03:24:44;76489.56;;;-145.10;100.00
56334;BME280;42240;53.626;55.886;2023-03-01T03:26:17;76487.59;;;-145.10;100.00
56334;BME280;42240;53.626;55.886;2023-03-01T03:27:51;76487.59;;;-145.10;100.00
56334;BME280;42240;53.626;55.886;2023-03-01T03:29:30;76481.66;;;-145.10;100.00
56334;BME280;42240;53.626;55.886;2023-03-01T03:31:06;76479.69;;;-145.10;100.00
56334;BME280;42240;53.626;55.886;2023-03-01T03:32:40;76471.78;;;-145.10;100.00
56334;BME280;42240;53.626;55.886;2023-03-01T03:34:13;76453.97;;;-145.10;100.00
56334;BME280;42240;53.626;55.886;2023-03-01T03:35:50;76475.72;;;-145.10;100.00
56334;BME280;42240;53.626;55.886;2023-03-01T03:37:24;76479.69;;;-145.10;100.00
56334;BME280;42240;53.626;55.886;2023-03-01T03:39:15;76485.63;;;-145.10;100.00
56334;BME280;42240;53.626;55.886;2023-03-01T03:41:00;76542.97;;;-145.10;100.00
56334;BME280;42240;53.626;55.886;2023-03-01T03:42:36;76463.88;;;-145.10;100.00
56334;BME280;42240;53.626;55.886;2023-03-01T03:44:09;76450.03;;;-145.10;100.00
56334;BME280;42240;53.626;55.886;2023-03-01T03:45:43;76430.25;;;-145.10;100.00
56334;BME280;42240;53.626;55.886;2023-03-01T03:47:16;76432.22;;;-145.10;100.00
56334;BME280;42240;53.626;55.886;2023-03-01T03:48:50;76434.19;;;-145.10;100.00
56334;BME280;42240;53.626;55.886;2023-03-01T03:50:23;76438.16;;;-145.10;100.00
56334;BME280;42240;53.626;55.886;2023-03-01T03:51:56;76446.06;;;-145.10;100.00
56334;BME280;42240;53.626;55.886;2023-03-01T03:53:29;76434.19;;;-145.10;100.00
56334;BME280;42240;53.626;55.886;2023-03-01T03:55:04;76428.28;;;-145.10;100.00
56334;BME280;42240;53.626;55.886;2023-03-01T03:56:41;76450.03;;;-145.10;100.00
56334;BME280;42240;53.626;55.886;2023-03-01T03:58:17;76442.13;;;-145.10;100.00
56334;BME280;42240;53.626;55.886;2023-03-01T03:59:52;76426.28;;;-145.10;100.00
56334;BME280;42240;53.626;55.886;2023-03-01T04:01:25;76428.28;;;-145.10;100.00
56334;BME280;42240;53.626;55.886;2023-03-01T04:02:58;76418.38;;;-145.10;100.00
56334;BME280;42240;53.626;55.886;2023-03-01T04:04:31;76406.53;;;-145.10;100.00
56334;BME280;42240;53.626;55.886;2023-03-01T04:06:04;76398.63;;;-145.10;100.00
56334;BME280;42240;53.626;55.886;2023-03-01T04:07:38;76402.56;;;-145.10;100.00
56334;BME280;42240;53.626;55.886;2023-03-01T04:09:11;76406.53;;;-145.10;100.00
56334;BME280;42240;53.626;55.886;2023-03-01T04:10:46;76404.53;;;-145.10;100.00
56334;BME280;42240;53.626;55.886;2023-03-01T04:12:20;76410.47;;;-145.10;100.00
56334;BME280;42240;53.626;55.886;2023-03-01T04:13:57;76410.47;;;-145.10;100.00
56334;BME280;42240;53.626;55.886;2023-03-01T04:15:31;76410.47;;;-145.10;100.00
56334;BME280;42240;53.626;55.886;2023-03-01T04:17:05;76386.75;;;-145.10;100.00
56334;BME280;42240;53.626;55.886;2023-03-01T04:18:38;76394.66;;;-145.10;100.00
56334;BME280;42240;53.626;55.886;2023-03-01T04:20:17;76378.84;;;-145.10;100.00
56334;BME280;42240;53.626;55.886;2023-03-01T04:21:50;76509.34;;;-145.10;100.00
56334;BME280;42240;53.626;55.886;2023-03-01T04:23:23;76392.69;;;-145.10;100.00
56334;BME280;42240;53.626;55.886;2023-03-01T04:24:56;76390.69;;;-145.10;100.00
56334;BME280;42240;53.626;55.886;2023-03-01T04:26:29;76376.88;;;-145.10;100.00
56334;BME280;42240;53.626;55.886;2023-03-01T04:28:03;76370.94;;;-145.10;100.00
56334;BME280;42240;53.626;55.886;2023-03-01T04:29:36;76359.06;;;-145.10;100.00
56334;BME280;42240;53.626;55.886;2023-03-01T04:31:11;76339.28;;;-145.10;100.00
56334;BME280;42240;53.626;55.886;2023-03-01T04:32:49;76343.25;;;-145.10;100.00
56334;BME280;42240;53.626;55.886;2023-03-01T04:34:22;76351.16;;;-145.10;100.00
56334;BME280;42240;53.626;55.886;2023-03-01T04:35:55;76341.28;;;-145.10;100.00
56334;BME280;42240;53.626;55.886;2023-03-01T04:37:30;76343.25;;;-145.10;100.00
56334;BME280;42240;53.626;55.886;2023-03-01T04:39:03;76341.28;;;-145.10;100.00
56334;BME280;42240;53.626;55.886;2023-03-01T04:40:44;76341.28;;;-145.10;100.00
56334;BME280;42240;53.626;55.886;2023-03-01T04:42:18;76339.28;;;-145.10;100.00
56334;BME280;42240;53.626;55.886;2023-03-01T04:43:52;76333.38;;;-145.10;100.00
56334;BME280;42240;53.626;55.886;2023-03-01T04:45:25;76331.38;;;-145.10;100.00
56334;BME280;42240;53.626;55.886;2023-03-01T04:46:58;76343.25;;;-145.10;100.00
56334;BME280;42240;53.626;55.886;2023-03-01T04:48:31;76335.34;;;-145.10;100.00
56334;BME280;42240;53.626;55.886;2023-03-01T04:50:05;76341.28;;;-145.10;100.00
56334;BME280;42240;53.626;55.886;2023-03-01T04:51:38;76335.34;;;-145.10;100.00
56334;BME280;42240;53.626;55.886;2023-03-01T04:53:11;76343.25;;;-145.10;100.00
56334;BME280;42240;53.626;55.886;2023-03-01T04:54:45;76323.47;;;-145.10;100.00
56334;BME280;42240;53.626;55.886;2023-03-01T04:56:17;76365.00;;;-145.10;100.00
56334;BME280;42240;53.626;55.886;2023-03-01T04:57:51;76313.59;;;-145.10;100.00
56334;BME280;42240;53.626;55.886;2023-03-01T04:59:24;76315.56;;;-145.10;100.00
56334;BME280;42240;53.626;55.886;2023-03-01T05:00:57;76305.69;;;-145.10;100.00
56334;BME280;42240;53.626;55.886;2023-03-01T05:02:30;76287.88;;;-145.10;100.00
56334;BME280;42240;53.626;55.886;2023-03-01T05:04:03;76291.84;;;-145.10;100.00
56334;BME280;42240;53.626;55.886;2023-03-01T05:05:38;76272.06;;;-145.10;100.00
56334;BME280;42240;53.626;55.886;2023-03-01T05:07:11;76264.16;;;-145.10;100.00
56334;BME280;42240;53.626;55.886;2023-03-01T05:08:45;76256.25;;;-145.10;100.00
56334;BME280;42240;53.626;55.886;2023-03-01T05:10:18;76252.28;;;-145.10;100.00
56334;BME280;42240;53.626;55.886;2023-03-01T05:11:51;76264.16;;;-145.10;100.00
56334;BME280;42240;53.626;55.886;2023-03-01T05:13:25;76252.28;;;-145.10;100.00
56334;BME280;42240;53.626;55.886;2023-03-01T05:14:58;76238.47;;;-145.10;100.00
56334;BME280;42240;53.626;55.886;2023-03-01T05:16:32;76234.50;;;-145.10;100.00
56334;BME280;42240;53.626;55.886;2023-03-01T05:18:07;76232.53;;;-145.10;100.00
56334;BME280;42240;53.626;55.886;2023-03-01T05:19:43;76232.53;;;-145.10;100.00
56334;BME280;42240;53.626;55.886;2023-03-01T05:21:16;76319.53;;;-145.10;100.00
56334;BME280;42240;53.626;55.886;2023-03-01T05:22:52;76222.63;;;-145.10;100.00
56334;BME280;42240;53.626;55.886;2023-03-01T05:24:28;76214.72;;;-145.10;100.00
56334;BME280;42240;53.626;55.886;2023-03-01T05:26:03;76222.63;;;-145.10;100.00
56334;BME280;42240;53.626;55.886;2023-03-01T05:27:38;76216.72;;;-145.10;100.00
56334;BME280;42240;53.626;55.886;2023-03-01T05:29:11;76236.47;;;-145.10;100.00
56334;BME280;42240;53.626;55.886;2023-03-01T05:30:45;76226.59;;;-145.10;100.00
56334;BME280;42240;53.626;55.886;2023-03-01T05:32:18;76202.88;;;-145.10;100.00
56334;BME280;42240;53.626;55.886;2023-03-01T05:33:51;76232.53;;;-145.10;100.00
56334;BME280;42240;53.626;55.886;2023-03-01T05:35:25;76224.63;;;-145.10;100.00
56334;BME280;42240;53.626;55.886;2023-03-01T05:36:59;76236.47;;;-145.10;100.00
56334;BME280;42240;53.626;55.886;2023-03-01T05:38:33;76299.75;;;-145.10;100.00
56334;BME280;42240;53.626;55.886;2023-03-01T05:40:06;76210.78;;;-145.10;100.00
56334;BME280;42240;53.626;55.886;2023-03-01T05:41:48;76222.63;;;-145.10;100.00
56334;BME280;42240;53.626;55.886;2023-03-01T05:43:24;76216.72;;;-145.10;100.00
56334;BME280;42240;53.626;55.886;2023-03-01T05:44:57;76206.81;;;-145.10;100.00
56334;BME280;42240;53.626;55.886;2023-03-01T05:46:30;76200.88;;;-145.10;100.00
56334;BME280;42240;53.626;55.886;2023-03-01T05:48:04;76173.22;;;-145.10;100.00
56334;BME280;42240;53.626;55.886;2023-03-01T05:49:38;76181.13;;;-145.10;100.00
56334;BME280;42240;53.626;55.886;2023-03-01T05:51:11;76165.31;;;-145.10;100.00
56334;BME280;42240;53.626;55.886;2023-03-01T05:52:46;76151.47;;;-145.10;100.00
56334;BME280;42240;53.626;55.886;2023-03-01T05:54:21;76133.66;;;-145.10;100.00
56334;BME280;42240;53.626;55.886;2023-03-01T05:55:54;76129.72;;;-145.10;100.00
56334;BME280;42240;53.626;55.886;2023-03-01T05:57:28;76082.25;;;-145.10;100.00
56334;BME280;42240;53.626;55.886;2023-03-01T05:59:02;76066.44;;;-145.10;100.00
56334;BME280;42240;53.626;55.886;2023-03-01T06:00:36;76076.31;;;-145.10;100.00
56334;BME280;42240;53.626;55.886;2023-03-01T06:02:09;76074.34;;;-145.10;100.00
56334;BME280;42240;53.626;55.886;2023-03-01T06:03:42;76088.19;;;-145.10;100.00
56334;BME280;42240;53.626;55.886;2023-03-01T06:05:15;76062.50;;;-145.10;100.00
56334;BME280;42240;53.626;55.886;2023-03-01T06:06:49;76038.75;;;-145.10;100.00
56334;BME280;42240;53.626;55.886;2023-03-01T06:08:22;76011.09;;;-145.10;100.00
56334;BME280;42240;53.626;55.886;2023-03-01T06:09:55;76019.00;;;-145.10;100.00
56334;BME280;42240;53.626;55.886;2023-03-01T06:11:27;75999.22;;;-145.10;100.00
56334;BME280;42240;53.626;55.886;2023-03-01T06:13:00;75983.41;;;-145.10;100.00
56334;BME280;42240;53.626;55.886;2023-03-01T06:14:33;76024.91;;;-145.10;100.00
56334;BME280;42240;53.626;55.886;2023-03-01T06:16:07;76003.16;;;-145.10;100.00
56334;BME280;42240;53.626;55.886;2023-03-01T06:17:42;76017.00;;;-145.10;100.00
56334;BME280;42240;53.626;55.886;2023-03-01T06:19:15;75979.44;;;-145.10;100.00
56334;BME280;42240;53.626;55.886;2023-03-01T06:20:55;75961.66;;;-145.10;100.00
56334;BME280;42240;53.626;55.886;2023-03-01T06:22:28;75991.31;;;-145.10;100.00
56334;BME280;42240;53.626;55.886;2023-03-01T06:24:01;75987.34;;;-145.10;100.00
56334;BME280;42240;53.626;55.886;2023-03-01T06:25:34;75977.47;;;-145.10;100.00
56334;BME280;42240;53.626;55.886;2023-03-01T06:27:07;75961.66;;;-145.10;100.00
56334;BME280;42240;53.626;55.886;2023-03-01T06:28:40;75947.81;;;-145.10;100.00
56334;BME280;42240;53.626;55.886;2023-03-01T06:30:15;75955.72;;;-145.10;100.00
56334;BME280;42240;53.626;55.886;2023-03-01T06:31:49;76015.03;;;-145.10;100.00
56334;BME280;42240;53.626;55.886;2023-03-01T06:33:22;76011.09;;;-145.10;100.00
56334;BME280;42240;53.626;55.886;2023-03-01T06:34:56;75999.22;;;-145.10;100.00
56334;BME280;42240;53.626;55.886;2023-03-01T06:36:31;75973.50;;;-145.10;100.00
56334;BME280;42240;53.626;55.886;2023-03-01T06:38:04;75983.41;;;-145.10;100.00
56334;BME280;42240;53.626;55.886;2023-03-01T06:39:37;75971.53;;;-145.10;100.00
56334;BME280;42240;53.626;55.886;2023-03-01T06:41:10;75979.44;;;-145.10;100.00
56334;BME280;42240;53.626;55.886;2023-03-01T06:42:43;75977.47;;;-145.10;100.00
56334;BME280;42240;53.626;55.886;2023-03-01T06:44:20;76019.00;;;-145.10;100.00
56334;BME280;42240;53.626;55.886;2023-03-01T06:45:53;76013.06;;;-145.10;100.00
56334;BME280;42240;53.626;55.886;2023-03-01T06:47:26;75999.22;;;-145.10;100.00
56334;BME280;42240;53.626;55.886;2023-03-01T06:48:59;76009.09;;;-145.10;100.00
56334;BME280;42240;53.626;55.886;2023-03-01T06:50:33;76007.13;;;-145.10;100.00
56334;BME280;42240;53.626;55.886;2023-03-01T06:52:06;75975.50;;;-145.10;100.00
56334;BME280;42240;53.626;55.886;2023-03-01T06:53:39;75989.34;;;-145.10;100.00
56334;BME280;42240;53.626;55.886;2023-03-01T06:55:13;75981.44;;;-145.10;100.00
56334;BME280;42240;53.626;55.886;2023-03-01T06:56:46;75993.28;;;-145.10;100.00
56334;BME280;42240;53.626;55.886;2023-03-01T06:58:20;76001.19;;;-145.10;100.00
56334;BME280;42240;53.626;55.886;2023-03-01T06:59:53;76011.09;;;-145.10;100.00
56334;BME280;42240;53.626;55.886;2023-03-01T07:01:26;76007.13;;;-145.10;100.00
56334;BME280;42240;53.626;55.886;2023-03-01T07:03:00;75999.22;;;-145.10;100.00
56334;BME280;42240;53.626;55.886;2023-03-01T07:04:34;75999.22;;;-145.10;100.00
56334;BME280;42240;53.626;55.886;2023-03-01T07:06:07;75991.31;;;-145.10;100.00
56334;BME280;42240;53.626;55.886;2023-03-01T07:07:40;76007.13;;;-145.10;100.00
56334;BME280;42240;53.626;55.886;2023-03-01T07:09:13;76003.16;;;-145.10;100.00
56334;BME280;42240;53.626;55.886;2023-03-01T07:10:46;75991.31;;;-145.10;100.00
56334;BME280;42240;53.626;55.886;2023-03-01T07:12:19;75979.44;;;-145.10;100.00
56334;BME280;42240;53.626;55.886;2023-03-01T07:13:52;75961.66;;;-145.10;100.00
56334;BME280;42240;53.626;55.886;2023-03-01T07:15:26;75943.88;;;-145.10;100.00
56334;BME280;42240;53.626;55.886;2023-03-01T07:16:59;75920.13;;;-145.10;100.00
56334;BME280;42240;53.626;55.886;2023-03-01T07:18:32;75906.28;;;-145.10;100.00
56334;BME280;42240;53.626;55.886;2023-03-01T07:20:06;75912.22;;;-145.10;100.00
56334;BME280;42240;53.626;55.886;2023-03-01T07:21:39;75900.38;;;-145.10;100.00
56334;BME280;42240;53.626;55.886;2023-03-01T07:23:12;75896.41;;;-145.10;100.00
56334;BME280;42240;53.626;55.886;2023-03-01T07:24:45;75928.03;;;-145.10;100.00
56334;BME280;42240;53.626;55.886;2023-03-01T07:26:18;75914.19;;;-145.10;100.00
56334;BME280;42240;53.626;55.886;2023-03-01T07:27:52;75900.38;;;-145.10;100.00
56334;BME280;42240;53.626;55.886;2023-03-01T07:29:26;75928.03;;;-145.10;100.00
56334;BME280;42240;53.626;55.886;2023-03-01T07:31:02;75904.31;;;-145.10;100.00
56334;BME280;42240;53.626;55.886;2023-03-01T07:32:35;75902.34;;;-145.10;100.00
56334;BME280;42240;53.626;55.886;2023-03-01T07:34:09;75912.22;;;-145.10;100.00
56334;BME280;42240;53.626;55.886;2023-03-01T07:35:43;75935.94;;;-145.10;100.00
56334;BME280;42240;53.626;55.886;2023-03-01T07:37:16;75943.88;;;-145.10;100.00
56334;BME280;42240;53.626;55.886;2023-03-01T07:38:49;75922.13;;;-145.10;100.00
56334;BME280;42240;53.626;55.886;2023-03-01T07:40:22;75908.28;;;-145.10;100.00
56334;BME280;42240;53.626;55.886;2023-03-01T07:41:55;75932.00;;;-145.10;100.00
56334;BME280;42240;53.626;55.886;2023-03-01T07:43:30;75908.28;;;-145.10;100.00
56334;BME280;42240;53.626;55.886;2023-03-01T07:45:04;75896.41;;;-145.10;100.00
56334;BME280;42240;53.626;55.886;2023-03-01T07:46:37;75890.47;;;-145.10;100.00
56334;BME280;42240;53.626;55.886;2023-03-01T07:48:10;75870.72;;;-145.10;100.00
56334;BME280;42240;53.626;55.886;2023-03-01T07:49:43;75878.63;;;-145.10;100.00
56334;BME280;42240;53.626;55.886;2023-03-01T07:51:16;75848.97;;;-145.10;100.00
56334;BME280;42240;53.626;55.886;2023-03-01T07:52:51;75858.84;;;-145.10;100.00
56334;BME280;42240;53.626;55.886;2023-03-01T07:54:24;75860.81;;;-145.10;100.00
56334;BME280;42240;53.626;55.886;2023-03-01T07:56:07;75841.06;;;-145.10;100.00
56334;BME280;42240;53.626;55.886;2023-03-01T07:57:40;75856.88;;;-145.10;100.00
56334;BME280;42240;53.626;55.886;2023-03-01T07:59:13;75860.81;;;-145.10;100.00
56334;BME280;42240;53.626;55.886;2023-03-01T08:00:46;75876.63;;;-145.10;100.00
56334;BME280;42240;53.626;55.886;2023-03-01T08:02:19;75888.50;;;-145.10;100.00
56334;BME280;42240;53.626;55.886;2023-03-01T08:03:52;75864.78;;;-145.10;100.00